Time;durP1;ratioP1;P1;durP2;ratioP2;P2;SDS_P1;SDS_P2;PMS_P1;PMS_P2;Temp;Humidity;BMP_temperature;BMP_pressure;BME280_temperature;BME280_humidity;BME280_pressure;Samples;Min_cycle;Max_cycle;Signal;HPM_P1;HPM_P2
2024/02/06 00:00:46;;;;;;;10.63;8.02;;;22.10;99.90;;;;;;4935573;29;20483;-56
2024/02/06 00:03:12;;;;;;;9.82;7.57;;;22.10;99.90;;;;;;4935161;29;20067;-56
2024/02/06 00:05:37;;;;;;;7.95;7.15;;;22.10;99.90;;;;;;4936334;29;20285;-57
2024/02/06 00:08:04;;;;;;;9.60;7.60;;;22.10;99.90;;;;;;4936455;29;20028;-57
2024/02/06 00:10:29;;;;;;;9.88;7.78;;;22.10;99.90;;;;;;4936021;29;20023;-56
2024/02/06 00:12:55;;;;;;;8.95;7.35;;;22.10;99.90;;;;;;4936561;29;20031;-57
2024/02/06 00:15:21;;;;;;;8.80;7.72;;;22.10;99.90;;;;;;4936602;29;20090;-57
2024/02/06 00:17:47;;;;;;;12.00;8.27;;;22.10;99.90;;;;;;4936432;29;20062;-56
2024/02/06 00:20:13;;;;;;;11.93;7.40;;;22.00;99.90;;;;;;4919122;29;20026;-56
2024/02/06 00:22:39;;;;;;;9.50;7.13;;;22.00;99.90;;;;;;4936164;29;20511;-56
2024/02/06 00:25:06;;;;;;;9.25;7.40;;;22.00;99.90;;;;;;4935635;29;20074;-56
2024/02/06 00:27:32;;;;;;;10.95;7.80;;;22.00;99.90;;;;;;4935342;29;20023;-57
2024/02/06 00:29:57;;;;;;;10.85;7.85;;;22.00;99.90;;;;;;4936474;29;20024;-56
2024/02/06 00:32:23;;;;;;;9.20;7.32;;;22.00;99.90;;;;;;4936531;29;20031;-58
2024/02/06 00:34:49;;;;;;;8.48;7.00;;;22.00;99.90;;;;;;4918751;29;20059;-56
2024/02/06 00:37:18;;;;;;;8.57;6.75;;;22.00;99.90;;;;;;4919605;29;20036;-57
2024/02/06 00:39:43;;;;;;;10.60;7.55;;;22.00;99.90;;;;;;4936305;29;20056;-56
2024/02/06 00:42:10;;;;;;;10.48;8.02;;;22.00;99.90;;;;;;4936165;29;20146;-57
2024/02/06 00:44:39;;;;;;;8.05;6.80;;;22.00;99.90;;;;;;4935259;29;20038;-57
2024/02/06 00:47:04;;;;;;;7.40;6.60;;;22.00;99.90;;;;;;4936152;29;20034;-56
2024/02/06 00:49:30;;;;;;;10.75;7.47;;;22.00;99.90;;;;;;4935920;29;20024;-57
2024/02/06 00:51:56;;;;;;;8.18;7.20;;;22.00;99.90;;;;;;4935850;29;20023;-56
2024/02/06 00:54:22;;;;;;;8.70;7.05;;;22.00;99.90;;;;;;4935986;29;20042;-57
2024/02/06 00:56:47;;;;;;;8.27;7.38;;;22.00;99.90;;;;;;4936087;29;20232;-56
2024/02/06 00:59:13;;;;;;;8.02;7.05;;;21.90;99.90;;;;;;4935890;29;20047;-59
2024/02/06 01:01:39;;;;;;;9.05;7.03;;;21.90;99.90;;;;;;4936136;29;20111;-58
2024/02/06 01:04:05;;;;;;;9.73;7.53;;;21.90;99.90;;;;;;4935807;29;20031;-57
2024/02/06 01:06:31;;;;;;;8.80;6.65;;;21.90;99.90;;;;;;4935719;29;20024;-57
2024/02/06 01:08:57;;;;;;;8.52;7.00;;;21.90;99.90;;;;;;4935851;29;20031;-58
2024/02/06 01:11:22;;;;;;;7.35;6.60;;;21.90;99.90;;;;;;4935623;29;20476;-57
2024/02/06 01:13:48;;;;;;;13.88;7.32;;;21.90;99.90;;;;;;4935542;29;20040;-57
2024/02/06 01:16:14;;;;;;;8.73;7.25;;;21.90;99.90;;;;;;4934331;29;20028;-57
2024/02/06 01:18:40;;;;;;;9.77;7.53;;;21.90;99.90;;;;;;4935627;29;20117;-57
2024/02/06 01:21:05;;;;;;;8.32;6.85;;;21.90;99.90;;;;;;4935346;29;20023;-58
2024/02/06 01:23:32;;;;;;;8.85;6.55;;;21.90;99.90;;;;;;4935471;29;20083;-57
2024/02/06 01:25:57;;;;;;;7.93;6.03;;;21.90;99.90;;;;;;4935346;29;20019;-58
2024/02/06 01:28:23;;;;;;;7.90;6.70;;;21.80;99.90;;;;;;4935387;29;20035;-58
2024/02/06 01:30:49;;;;;;;6.82;6.13;;;21.90;99.90;;;;;;4935649;29;20102;-58
2024/02/06 01:33:15;;;;;;;9.30;7.13;;;21.80;99.90;;;;;;4935291;29;20110;-57
2024/02/06 01:35:41;;;;;;;7.75;6.50;;;21.80;99.90;;;;;;4935224;29;20492;-57
2024/02/06 01:38:07;;;;;;;8.13;6.80;;;21.80;99.90;;;;;;4918017;29;20035;-59
2024/02/06 01:40:42;;;;;;;7.45;6.43;;;21.80;99.90;;;;;;4935173;29;20031;-57
2024/02/06 01:43:08;;;;;;;7.70;6.70;;;21.80;99.90;;;;;;4935174;29;20078;-58
2024/02/06 01:45:34;;;;;;;8.52;6.35;;;21.80;99.90;;;;;;4917950;29;20473;-57
2024/02/06 01:48:00;;;;;;;8.07;6.88;;;21.80;99.90;;;;;;4917970;29;20036;-57
2024/02/06 01:50:26;;;;;;;7.47;6.57;;;21.80;99.90;;;;;;4935075;29;20031;-57
2024/02/06 01:52:54;;;;;;;8.65;6.85;;;21.80;99.90;;;;;;4935146;29;20027;-57
2024/02/06 01:55:19;;;;;;;7.72;6.93;;;21.80;99.90;;;;;;4935218;29;20070;-57
2024/02/06 01:57:46;;;;;;;8.25;6.68;;;21.80;99.90;;;;;;4935000;29;20504;-57
2024/02/06 02:00:13;;;;;;;7.38;6.60;;;21.70;99.90;;;;;;4935588;29;20023;-57
2024/02/06 02:02:40;;;;;;;8.07;6.53;;;21.70;99.90;;;;;;4934680;29;20050;-58
2024/02/06 02:05:07;;;;;;;9.57;6.75;;;21.70;99.90;;;;;;4934968;29;20023;-58
2024/02/06 02:07:35;;;;;;;7.78;6.93;;;21.70;99.90;;;;;;4935015;29;20380;-57
2024/02/06 02:10:02;;;;;;;;;;;21.70;99.90;;;;;;4935434;29;20031;-58
2024/02/06 02:12:27;;;;;;;8.85;6.80;;;21.70;99.90;;;;;;4935033;29;19906;-58
2024/02/06 02:14:53;;;;;;;8.10;6.40;;;21.70;99.90;;;;;;4935131;29;20322;-58
2024/02/06 02:17:19;;;;;;;10.90;8.15;;;21.70;99.90;;;;;;4935436;29;20027;-58
2024/02/06 02:19:45;;;;;;;9.05;6.75;;;21.70;99.90;;;;;;4936604;29;20517;-58
2024/02/06 02:22:10;;;;;;;7.97;6.53;;;21.70;99.90;;;;;;4938098;29;20042;-58
2024/02/06 02:24:37;;;;;;;8.55;6.97;;;21.60;99.90;;;;;;4938251;29;20028;-58
2024/02/06 02:27:03;;;;;;;8.43;6.60;;;21.60;99.90;;;;;;4939249;29;20023;-57
2024/02/06 02:29:31;;;;;;;7.27;6.57;;;21.60;99.90;;;;;;4935873;29;20023;-57
2024/02/06 02:31:58;;;;;;;10.15;7.40;;;21.60;99.90;;;;;;4917610;29;20103;-57
2024/02/06 02:34:24;;;;;;;8.18;7.03;;;21.60;99.90;;;;;;4935022;29;20039;-57
2024/02/06 02:36:49;;;;;;;9.10;6.85;;;21.60;99.90;;;;;;4934812;29;20027;-57
2024/02/06 02:39:15;;;;;;;9.10;6.65;;;21.60;99.90;;;;;;4934674;29;20044;-58
2024/02/06 02:41:41;;;;;;;7.88;6.90;;;21.60;99.90;;;;;;4934601;29;20166;-57
2024/02/06 02:44:07;;;;;;;8.10;7.10;;;21.60;99.90;;;;;;4934652;29;20465;-58
2024/02/06 02:46:33;;;;;;;9.18;7.93;;;21.50;99.90;;;;;;4934593;29;20460;-58
2024/02/06 02:48:59;;;;;;;9.05;7.35;;;21.60;99.90;;;;;;4934594;29;20024;-57
2024/02/06 02:51:24;;;;;;;10.25;7.20;;;21.60;99.90;;;;;;4934711;29;20429;-57
2024/02/06 02:53:50;;;;;;;8.18;6.95;;;21.60;99.90;;;;;;4934513;29;20031;-57
2024/02/06 02:56:16;;;;;;;9.02;6.85;;;21.50;99.90;;;;;;4934463;29;20087;-58
2024/02/06 02:58:42;;;;;;;8.27;6.30;;;21.50;99.90;;;;;;4934480;29;20051;-58
2024/02/06 03:01:08;;;;;;;7.90;7.10;;;21.50;99.90;;;;;;4914787;29;20493;-57
2024/02/06 03:03:34;;;;;;;7.68;6.20;;;21.50;99.90;;;;;;4915489;29;20084;-57
2024/02/06 03:06:00;;;;;;;9.82;7.57;;;21.50;99.90;;;;;;4915330;29;20028;-58
2024/02/06 03:08:26;;;;;;;9.05;6.38;;;21.50;99.90;;;;;;4918041;29;20028;-56
2024/02/06 03:10:52;;;;;;;10.77;7.13;;;21.50;99.90;;;;;;4919013;29;20028;-57
2024/02/06 03:13:18;;;;;;;9.05;6.68;;;21.50;99.90;;;;;;4918965;29;20032;-57
2024/02/06 03:15:44;;;;;;;8.63;7.75;;;21.50;99.90;;;;;;4918792;29;20489;-56
2024/02/06 03:18:10;;;;;;;6.70;6.03;;;21.50;99.90;;;;;;4918787;29;20036;-59
2024/02/06 03:20:36;;;;;;;8.70;6.90;;;21.50;99.90;;;;;;4918691;29;20421;-57
2024/02/06 03:23:02;;;;;;;9.13;7.60;;;21.40;99.90;;;;;;4917348;29;20040;-57
2024/02/06 03:25:28;;;;;;;9.13;7.03;;;21.40;99.90;;;;;;4918892;29;20048;-58
2024/02/06 03:27:54;;;;;;;8.88;6.80;;;21.40;99.90;;;;;;4918732;29;20039;-56
2024/02/06 03:30:20;;;;;;;9.57;7.10;;;21.40;99.90;;;;;;4918469;29;20128;-55
2024/02/06 03:32:47;;;;;;;9.52;7.40;;;21.40;99.90;;;;;;4918466;29;20496;-56
2024/02/06 03:35:13;;;;;;;8.57;7.68;;;21.40;99.90;;;;;;4918596;29;20080;-57
2024/02/06 03:37:39;;;;;;;7.85;6.72;;;21.40;99.90;;;;;;4918554;29;20043;-56
2024/02/06 03:40:08;;;;;;;10.18;7.63;;;21.40;99.90;;;;;;4918514;29;20031;-57
2024/02/06 03:42:35;;;;;;;8.77;6.78;;;21.40;99.90;;;;;;4918293;29;20043;-56
2024/02/06 03:45:01;;;;;;;7.45;6.65;;;21.40;99.90;;;;;;4916956;29;20020;-57
2024/02/06 03:47:27;;;;;;;8.35;6.85;;;21.30;99.90;;;;;;4918506;29;20103;-56
2024/02/06 03:49:52;;;;;;;9.48;6.75;;;21.30;99.90;;;;;;4918140;29;20469;-57
2024/02/06 03:52:18;;;;;;;8.45;6.22;;;21.30;99.90;;;;;;4917034;29;20035;-57
2024/02/06 03:54:44;;;;;;;8.02;6.85;;;21.30;99.90;;;;;;4918200;29;20055;-57
2024/02/06 03:57:10;;;;;;;7.57;6.40;;;21.30;99.90;;;;;;4916833;29;20500;-57
2024/02/06 03:59:36;;;;;;;7.40;6.47;;;21.30;99.90;;;;;;4917903;29;20062;-56
2024/02/06 04:02:03;;;;;;;8.48;6.65;;;21.30;99.90;;;;;;4916938;29;20080;-56
2024/02/06 04:04:28;;;;;;;8.73;7.40;;;21.30;99.90;;;;;;4918333;29;20021;-56
2024/02/06 04:06:54;;;;;;;7.07;6.05;;;21.30;99.90;;;;;;4917930;29;20032;-57
2024/02/06 04:09:20;;;;;;;7.72;6.93;;;21.30;99.90;;;;;;4917873;29;20111;-58
2024/02/06 04:11:46;;;;;;;7.15;6.38;;;21.30;99.90;;;;;;4917760;29;20032;-57
2024/02/06 04:14:11;;;;;;;9.68;7.60;;;21.30;99.90;;;;;;4917653;29;20024;-57
2024/02/06 04:16:37;;;;;;;7.88;6.78;;;21.20;99.90;;;;;;4917729;29;20025;-57
2024/02/06 04:19:03;;;;;;;9.30;7.28;;;21.20;99.90;;;;;;4916393;29;20047;-57
2024/02/06 04:21:29;;;;;;;9.45;6.60;;;21.20;99.90;;;;;;4917742;29;20477;-56
2024/02/06 04:23:55;;;;;;;9.30;6.85;;;21.20;99.90;;;;;;4917577;29;20035;-56
2024/02/06 04:26:21;;;;;;;13.07;8.32;;;21.20;99.90;;;;;;4917532;29;20032;-56
2024/02/06 04:28:47;;;;;;;11.82;7.32;;;21.20;99.90;;;;;;4917297;29;20084;-56
2024/02/06 04:31:12;;;;;;;7.95;7.07;;;21.20;99.90;;;;;;4916123;29;20024;-57
2024/02/06 04:33:39;;;;;;;9.93;7.75;;;21.20;99.90;;;;;;4917557;29;20051;-58
2024/02/06 04:36:05;;;;;;;9.57;6.93;;;21.20;99.90;;;;;;4916101;29;20059;-57
2024/02/06 04:38:31;;;;;;;11.73;7.47;;;21.20;99.90;;;;;;4915631;29;20481;-55
2024/02/06 04:40:57;;;;;;;9.45;7.15;;;21.20;99.90;;;;;;4916485;29;20031;-58
2024/02/06 04:43:23;;;;;;;10.05;7.10;;;21.20;99.90;;;;;;4916454;29;20036;-56
2024/02/06 04:45:49;;;;;;;12.15;7.45;;;21.20;99.90;;;;;;4916750;29;20036;-55
2024/02/06 04:48:14;;;;;;;9.82;6.95;;;21.20;99.90;;;;;;4916680;29;20119;-55
2024/02/06 04:50:40;;;;;;;8.43;6.95;;;21.20;99.90;;;;;;4916592;29;20465;-55
2024/02/06 04:53:06;;;;;;;8.10;6.97;;;21.20;99.90;;;;;;4915872;29;20024;-57
2024/02/06 04:55:32;;;;;;;10.57;6.53;;;21.20;99.90;;;;;;4916442;29;20040;-57
2024/02/06 04:58:00;;;;;;;8.93;6.63;;;21.20;99.90;;;;;;4914988;29;20055;-57
2024/02/06 05:00:26;;;;;;;11.27;6.32;;;21.10;99.90;;;;;;4916651;29;20111;-57
2024/02/06 05:02:52;;;;;;;9.32;6.38;;;21.20;99.90;;;;;;4933790;29;20131;-57
2024/02/06 05:05:18;;;;;;;9.70;7.07;;;21.10;99.90;;;;;;4935134;29;20063;-57
2024/02/06 05:07:44;;;;;;;8.05;6.97;;;21.10;99.90;;;;;;4935621;29;20082;-57
2024/02/06 05:10:10;;;;;;;8.75;6.43;;;21.10;99.90;;;;;;4935835;29;20031;-57
2024/02/06 05:12:36;;;;;;;9.10;6.55;;;21.10;99.90;;;;;;4935582;29;20023;-57
2024/02/06 05:15:03;;;;;;;8.77;7.72;;;21.10;99.90;;;;;;4935762;29;20039;-57
2024/02/06 05:17:29;;;;;;;8.17;6.50;;;21.10;99.90;;;;;;4918677;29;20036;-57
2024/02/06 05:19:56;;;;;;;8.23;6.53;;;21.10;99.90;;;;;;4935708;29;20027;-57
2024/02/06 05:22:22;;;;;;;12.15;7.00;;;21.10;99.90;;;;;;4935483;29;20034;-58
2024/02/06 05:24:48;;;;;;;9.77;7.10;;;21.10;99.90;;;;;;4935453;29;20119;-56
2024/02/06 05:27:14;;;;;;;14.13;7.55;;;21.10;99.90;;;;;;4935437;29;20047;-57
2024/02/06 05:29:40;;;;;;;8.98;6.88;;;21.10;99.90;;;;;;4917814;29;20040;-57
2024/02/06 05:32:06;;;;;;;9.80;8.05;;;21.10;99.90;;;;;;4935117;29;20032;-58
2024/02/06 05:34:32;;;;;;;11.15;6.28;;;21.10;99.90;;;;;;4935639;29;20032;-57
2024/02/06 05:36:57;;;;;;;8.25;7.18;;;21.10;99.90;;;;;;4935331;29;20421;-57
2024/02/06 05:39:24;;;;;;;9.55;6.85;;;21.00;99.90;;;;;;4935232;29;20546;-57
2024/02/06 05:41:50;;;;;;;8.05;6.45;;;21.10;99.90;;;;;;4935172;29;20428;-57
2024/02/06 05:44:18;;;;;;;7.63;6.70;;;21.10;99.90;;;;;;4935254;29;20027;-57
2024/02/06 05:46:43;;;;;;;8.93;6.78;;;21.10;99.90;;;;;;4935322;29;20115;-56
2024/02/06 05:49:09;;;;;;;9.35;6.53;;;21.00;99.90;;;;;;4918175;29;20107;-58
2024/02/06 05:51:35;;;;;;;9.35;6.80;;;21.00;99.90;;;;;;4935152;29;20125;-57
2024/02/06 05:54:01;;;;;;;8.93;6.57;;;21.00;99.90;;;;;;4935278;29;20106;-57
2024/02/06 05:56:27;;;;;;;13.55;6.40;;;21.00;99.90;;;;;;4902264;29;20023;-57
2024/02/06 05:58:52;;;;;;;12.27;6.68;;;21.00;99.90;;;;;;4934979;29;20038;-58
2024/02/06 06:01:18;;;;;;;8.45;6.32;;;21.00;99.90;;;;;;4928789;29;20056;-58
2024/02/06 06:03:44;;;;;;;10.15;6.60;;;21.00;99.90;;;;;;4914989;29;20044;-58
2024/02/06 06:06:10;;;;;;;7.18;6.25;;;21.00;99.90;;;;;;4915903;29;20032;-57
2024/02/06 06:08:35;;;;;;;6.53;5.75;;;21.00;99.90;;;;;;4915893;29;20051;-57
2024/02/06 06:11:01;;;;;;;7.57;5.68;;;21.00;99.90;;;;;;4899144;29;20028;-57
2024/02/06 06:13:27;;;;;;;10.38;6.85;;;21.00;99.90;;;;;;4915969;29;20036;-57
2024/02/06 06:15:53;;;;;;;7.78;5.95;;;21.00;99.90;;;;;;4915807;29;20485;-57
2024/02/06 06:18:19;;;;;;;7.93;6.05;;;21.00;99.90;;;;;;4915217;29;20396;-57
2024/02/06 06:20:45;;;;;;;6.30;5.65;;;21.00;99.90;;;;;;4915751;29;20020;-57
2024/02/06 06:23:10;;;;;;;7.82;6.80;;;21.00;99.90;;;;;;4915713;29;20032;-57
2024/02/06 06:25:36;;;;;;;10.00;6.00;;;21.00;99.90;;;;;;4915905;29;20024;-58
2024/02/06 06:28:04;;;;;;;7.40;6.20;;;20.90;99.90;;;;;;4916079;29;20039;-57
2024/02/06 06:30:30;;;;;;;9.45;5.20;;;21.00;99.90;;;;;;4915776;29;20028;-57
2024/02/06 06:32:55;;;;;;;8.98;6.32;;;20.90;99.90;;;;;;4915782;29;20366;-58
2024/02/06 06:35:21;;;;;;;7.75;5.28;;;21.00;99.90;;;;;;4915917;29;20032;-56
2024/02/06 06:37:48;;;;;;;11.43;5.97;;;21.00;99.90;;;;;;4915521;29;20454;-57
2024/02/06 06:40:14;;;;;;;8.55;5.70;;;21.00;99.90;;;;;;4915724;29;20051;-56
2024/02/06 06:42:40;;;;;;;6.47;5.55;;;21.00;99.90;;;;;;4916829;29;20123;-56
2024/02/06 06:45:06;;;;;;;9.15;5.60;;;20.90;99.90;;;;;;4919566;29;20027;-57
2024/02/06 06:47:33;;;;;;;8.50;5.45;;;20.90;99.90;;;;;;4919470;29;20028;-57
2024/02/06 06:49:59;;;;;;;9.07;5.95;;;21.00;99.90;;;;;;4919193;29;20036;-57
2024/02/06 06:52:25;;;;;;;6.55;5.80;;;20.90;99.90;;;;;;4918042;29;20489;-57
2024/02/06 06:54:51;;;;;;;8.73;5.75;;;20.90;99.90;;;;;;4919278;29;20111;-56
2024/02/06 06:57:16;;;;;;;6.70;5.47;;;21.00;99.90;;;;;;4919171;29;20063;-56
2024/02/06 06:59:43;;;;;;;8.00;5.70;;;20.90;99.90;;;;;;4919003;29;20064;-57
2024/02/06 07:02:08;;;;;;;10.35;5.85;;;20.90;99.90;;;;;;4932769;29;20044;-56
2024/02/06 07:04:35;;;;;;;8.13;5.97;;;20.90;99.90;;;;;;4938371;29;20023;-57
2024/02/06 07:07:01;;;;;;;8.38;6.38;;;20.90;99.90;;;;;;4937963;29;20032;-56
2024/02/06 07:09:27;;;;;;;11.30;5.70;;;20.90;99.90;;;;;;4937867;29;20028;-56
2024/02/06 07:11:53;;;;;;;7.72;6.38;;;20.90;99.90;;;;;;4937816;29;20024;-57
2024/02/06 07:14:20;;;;;;;8.95;5.70;;;20.90;99.90;;;;;;4937866;29;20480;-57
2024/02/06 07:16:45;;;;;;;6.45;5.50;;;20.90;99.90;;;;;;4937882;29;20020;-56
2024/02/06 07:19:11;;;;;;;8.77;6.18;;;20.90;99.90;;;;;;4937853;29;20035;-57
2024/02/06 07:21:37;;;;;;;8.57;6.22;;;20.90;99.90;;;;;;4937653;29;20039;-56
2024/02/06 07:24:04;;;;;;;8.45;5.60;;;20.90;99.90;;;;;;4920533;29;20385;-57
2024/02/06 07:26:31;;;;;;;8.55;6.20;;;20.90;99.90;;;;;;4937742;29;20110;-56
2024/02/06 07:28:57;;;;;;;6.97;5.38;;;20.90;99.90;;;;;;4937608;29;20388;-56
2024/02/06 07:31:23;;;;;;;10.07;5.93;;;20.90;99.90;;;;;;4937557;29;20512;-57
2024/02/06 07:33:50;;;;;;;7.60;5.85;;;20.90;99.90;;;;;;4937599;29;20031;-57
2024/02/06 07:36:16;;;;;;;9.23;6.05;;;20.90;99.90;;;;;;4937498;29;20102;-57
2024/02/06 07:38:42;;;;;;;7.22;5.60;;;20.90;99.90;;;;;;4937401;29;20028;-56
2024/02/06 07:41:08;;;;;;;9.00;6.20;;;20.90;99.90;;;;;;4937695;29;20031;-56
2024/02/06 07:43:37;;;;;;;10.73;6.80;;;20.90;99.90;;;;;;4937346;29;20499;-57
2024/02/06 07:46:04;;;;;;;12.75;7.35;;;20.90;99.90;;;;;;4920269;29;20122;-57
2024/02/06 07:48:30;;;;;;;8.50;6.22;;;20.90;99.90;;;;;;4937342;29;20031;-56
2024/02/06 07:50:56;;;;;;;9.00;6.30;;;20.90;99.90;;;;;;4937098;29;20035;-57
2024/02/06 07:53:22;;;;;;;10.98;7.63;;;20.90;99.90;;;;;;4919631;29;20027;-57
2024/02/06 07:55:47;;;;;;;7.70;6.38;;;20.90;99.90;;;;;;4937220;29;20024;-57
2024/02/06 07:58:13;;;;;;;9.52;6.50;;;20.90;99.90;;;;;;4937003;29;20038;-56
2024/02/06 08:00:39;;;;;;;8.68;6.50;;;21.00;99.90;;;;;;4937157;29;20024;-56
2024/02/06 08:03:05;;;;;;;11.27;6.07;;;21.00;99.90;;;;;;4936861;29;20110;-56
2024/02/06 08:05:31;;;;;;;9.73;6.68;;;20.90;99.90;;;;;;4936879;29;20395;-56
2024/02/06 08:07:57;;;;;;;9.38;6.25;;;21.00;99.90;;;;;;4936976;29;20102;-57
2024/02/06 08:10:23;;;;;;;9.10;6.45;;;21.00;99.90;;;;;;4936874;29;20028;-56
2024/02/06 08:12:48;;;;;;;10.70;6.70;;;21.00;99.90;;;;;;4936890;29;20058;-56
2024/02/06 08:15:14;;;;;;;10.05;7.13;;;21.00;99.90;;;;;;4919584;29;20497;-57
2024/02/06 08:17:42;;;;;;;9.57;6.63;;;21.00;99.90;;;;;;4936850;29;20035;-57
2024/02/06 08:20:09;;;;;;;8.45;6.82;;;21.00;99.90;;;;;;4936968;29;20102;-57
2024/02/06 08:22:37;;;;;;;9.38;6.25;;;21.10;99.90;;;;;;4919830;29;20410;-57
2024/02/06 08:25:07;;;;;;;9.07;6.75;;;21.10;99.90;;;;;;4936553;29;20047;-56
2024/02/06 08:27:34;;;;;;;6.90;5.68;;;21.10;99.90;;;;;;4936455;29;20431;-56
2024/02/06 08:30:00;;;;;;;12.02;7.72;;;21.10;99.90;;;;;;4936391;29;20047;-56
2024/02/06 08:32:26;;;;;;;9.95;6.10;;;21.10;99.90;;;;;;4936284;29;20027;-56
2024/02/06 08:34:51;;;;;;;9.90;7.72;;;21.10;99.90;;;;;;4919221;29;20063;-57
2024/02/06 08:37:17;;;;;;;8.93;6.95;;;21.10;99.90;;;;;;4936274;29;20055;-57
2024/02/06 08:39:43;;;;;;;9.00;6.80;;;21.20;99.90;;;;;;4919261;29;20035;-57
2024/02/06 08:42:10;;;;;;;9.77;7.38;;;21.20;99.90;;;;;;4919250;29;20412;-57
2024/02/06 08:44:37;;;;;;;10.48;6.47;;;21.20;99.90;;;;;;4936234;29;20055;-56
2024/02/06 08:47:03;;;;;;;10.48;7.45;;;21.20;99.90;;;;;;4935947;29;20027;-57
2024/02/06 08:49:28;;;;;;;8.32;6.65;;;21.20;99.90;;;;;;4918923;29;20024;-57
2024/02/06 08:51:54;;;;;;;8.93;6.53;;;21.20;99.90;;;;;;4935989;29;20030;-57
2024/02/06 08:54:20;;;;;;;12.25;7.00;;;21.20;99.90;;;;;;4936055;29;20039;-57
2024/02/06 08:56:47;;;;;;;10.35;6.55;;;21.20;99.90;;;;;;4936033;29;20388;-56
2024/02/06 08:59:13;;;;;;;9.13;7.22;;;21.30;99.90;;;;;;4936171;29;20155;-57
2024/02/06 09:01:39;;;;;;;8.73;6.72;;;21.30;99.90;;;;;;4935782;29;20534;-56
2024/02/06 09:04:06;;;;;;;10.23;7.05;;;21.30;99.90;;;;;;4918815;29;20031;-56
2024/02/06 09:06:32;;;;;;;8.15;6.88;;;21.30;99.90;;;;;;4935137;29;20042;-57
2024/02/06 09:08:58;;;;;;;9.57;6.72;;;21.30;99.90;;;;;;4935855;29;20624;-56
2024/02/06 09:11:27;;;;;;;9.07;6.80;;;21.30;99.90;;;;;;4935698;29;20107;-56
2024/02/06 09:13:55;;;;;;;12.20;7.05;;;21.40;99.90;;;;;;4935554;29;20110;-56
2024/02/06 09:16:22;;;;;;;10.30;6.80;;;21.40;99.90;;;;;;4935659;29;20075;-56
2024/02/06 09:18:49;;;;;;;10.00;7.15;;;21.40;99.90;;;;;;4935626;29;20039;-57
2024/02/06 09:21:18;;;;;;;9.93;6.18;;;21.40;99.90;;;;;;4935666;29;20485;-57
2024/02/06 09:23:44;;;;;;;9.93;7.15;;;21.40;99.90;;;;;;4935775;29;20043;-56
2024/02/06 09:26:11;;;;;;;10.75;7.03;;;21.50;99.90;;;;;;4935682;29;20106;-56
2024/02/06 09:28:38;;;;;;;8.98;7.25;;;21.50;99.90;;;;;;4935231;29;20028;-58
2024/02/06 09:31:04;;;;;;;9.80;7.10;;;21.50;99.90;;;;;;4934220;29;20024;-57
2024/02/06 09:33:30;;;;;;;12.57;7.05;;;21.50;99.90;;;;;;4935352;29;20028;-57
2024/02/06 09:35:56;;;;;;;9.55;7.72;;;21.50;99.90;;;;;;4918099;29;20511;-57
2024/02/06 09:38:22;;;;;;;9.90;7.32;;;21.50;99.90;;;;;;4935198;29;20384;-56
2024/02/06 09:40:48;;;;;;;11.65;7.68;;;21.50;99.90;;;;;;4935271;29;20082;-57
2024/02/06 09:43:15;;;;;;;9.85;7.45;;;21.60;99.90;;;;;;4935220;29;20075;-56
2024/02/06 09:45:41;;;;;;;12.00;8.05;;;21.60;99.90;;;;;;4935460;29;20357;-56
2024/02/06 09:48:07;;;;;;;11.07;7.50;;;21.60;99.90;;;;;;4935060;29;20036;-56
2024/02/06 09:50:34;;;;;;;11.35;8.57;;;21.60;99.90;;;;;;4934981;29;20027;-56
2024/02/06 09:53:01;;;;;;;17.02;8.73;;;21.70;99.90;;;;;;4935157;29;20054;-56
2024/02/06 09:55:27;;;;;;;11.90;8.00;;;21.70;99.90;;;;;;4935169;29;20035;-56
2024/02/06 09:57:54;;;;;;;11.60;8.40;;;21.70;99.90;;;;;;4934921;29;20117;-56
2024/02/06 10:00:21;;;;;;;10.45;7.57;;;21.70;99.90;;;;;;4934917;29;20028;-56
2024/02/06 10:02:49;;;;;;;12.80;7.20;;;21.80;99.90;;;;;;4934935;29;20047;-57
2024/02/06 10:05:23;;;;;;;8.93;7.53;;;21.80;99.90;;;;;;4933926;29;20035;-56
2024/02/06 10:07:49;;;;;;;12.15;7.25;;;21.90;99.90;;;;;;4934963;29;20028;-56
2024/02/06 10:10:19;;;;;;;10.85;7.28;;;21.90;99.90;;;;;;4934909;29;20051;-55
2024/02/06 10:12:45;;;;;;;14.27;7.90;;;21.90;99.90;;;;;;4935161;29;20115;-55
2024/02/06 10:15:18;;;;;;;9.63;7.10;;;22.00;99.90;;;;;;4934774;29;20083;-55
2024/02/06 10:17:44;;;;;;;11.77;8.10;;;22.00;99.90;;;;;;4938264;29;20031;-57
2024/02/06 10:20:11;;;;;;;18.35;8.88;;;22.00;99.90;;;;;;4938817;29;20094;-57
2024/02/06 10:22:41;;;;;;;10.88;7.45;;;22.10;99.90;;;;;;4938721;29;20036;-56
2024/02/06 10:25:10;;;;;;;9.18;7.00;;;22.10;99.90;;;;;;4938777;29;20027;-57
2024/02/06 10:27:38;;;;;;;11.35;7.80;;;22.10;99.90;;;;;;4938661;29;20036;-57
2024/02/06 10:30:09;;;;;;;11.02;7.38;;;22.20;99.90;;;;;;4938737;29;20027;-57
2024/02/06 10:32:36;;;;;;;9.45;6.53;;;22.20;99.90;;;;;;4938725;29;20030;-57
2024/02/06 10:35:04;;;;;;;9.00;7.03;;;22.20;99.90;;;;;;4938591;29;20059;-58
2024/02/06 10:37:33;;;;;;;11.18;7.25;;;22.30;99.90;;;;;;4938461;29;20027;-58
2024/02/06 10:39:59;;;;;;;11.52;7.82;;;22.30;99.90;;;;;;4938437;29;20039;-57
2024/02/06 10:42:25;;;;;;;9.68;7.13;;;22.30;99.90;;;;;;4938212;29;20046;-57
2024/02/06 10:44:57;;;;;;;12.98;7.10;;;22.30;99.90;;;;;;4938295;29;20103;-58
2024/02/06 10:47:24;;;;;;;11.82;7.40;;;22.40;99.90;;;;;;4938413;29;20086;-57
2024/02/06 10:50:04;;;;;;;9.27;6.35;;;22.40;99.90;;;;;;4938219;29;20103;-57
2024/02/06 10:52:30;;;;;;;8.90;6.70;;;22.40;99.90;;;;;;4938131;29;20042;-57
2024/02/06 10:54:57;;;;;;;8.48;6.60;;;22.40;99.90;;;;;;4938188;29;20035;-57
2024/02/06 10:57:29;;;;;;;10.60;7.00;;;22.40;99.90;;;;;;4938210;29;20027;-57
2024/02/06 11:00:11;;;;;;;11.75;7.53;;;22.50;99.90;;;;;;4938231;29;20020;-57
2024/02/06 11:02:40;;;;;;;10.68;6.47;;;22.50;99.90;;;;;;4937726;29;20043;-57
2024/02/06 11:05:26;;;;;;;11.73;7.10;;;22.50;99.90;;;;;;4937857;29;20031;-57
2024/02/06 11:07:55;;;;;;;12.38;7.13;;;22.50;99.90;;;;;;4937833;29;20031;-57
2024/02/06 11:10:59;;;;;;;11.02;7.65;;;22.60;99.90;;;;;;4937819;29;20027;-57
2024/02/06 11:13:33;;;;;;;12.32;7.28;;;22.60;99.90;;;;;;4928947;29;20122;-58
2024/02/06 11:16:05;;;;;;;9.82;7.07;;;22.60;99.90;;;;;;4937804;29;20079;-58
2024/02/06 11:18:52;;;;;;;9.13;6.95;;;22.60;99.90;;;;;;4921316;29;20028;-58
2024/02/06 11:21:19;;;;;;;10.80;7.50;;;22.60;99.90;;;;;;4938045;29;20028;-58
2024/02/06 11:23:47;;;;;;;13.85;7.35;;;22.60;99.90;;;;;;4937921;29;20039;-58
2024/02/06 11:26:13;;;;;;;11.38;7.30;;;22.60;99.90;;;;;;4937584;29;20019;-57
2024/02/06 11:28:42;;;;;;;11.15;7.07;;;22.60;99.90;;;;;;4936603;29;20040;-59
2024/02/06 11:31:08;;;;;;;11.98;6.95;;;22.60;99.90;;;;;;4936440;29;20027;-56
2024/02/06 11:33:38;;;;;;;12.52;7.72;;;22.60;99.90;;;;;;4936987;29;20020;-57
2024/02/06 11:36:16;;;;;;;13.10;8.18;;;22.60;99.90;;;;;;4936400;29;20520;-57
2024/02/06 11:38:44;;;;;;;10.85;7.63;;;22.60;99.90;;;;;;4933231;29;20032;-58
2024/02/06 11:41:11;;;;;;;13.30;6.85;;;22.60;99.90;;;;;;4908433;29;20033;-59
2024/02/06 11:43:37;;;;;;;14.95;8.10;;;22.60;99.90;;;;;;4927383;29;20074;-58
2024/02/06 11:46:06;;;;;;;11.25;7.25;;;22.60;99.90;;;;;;4937348;29;20059;-57
2024/02/06 11:48:31;;;;;;;12.05;7.18;;;22.60;99.90;;;;;;4920143;29;20380;-58
2024/02/06 11:50:57;;;;;;;10.10;6.65;;;22.60;99.90;;;;;;4937140;29;20039;-57
2024/02/06 11:53:27;;;;;;;13.55;7.30;;;22.60;99.90;;;;;;4928468;29;20032;-57
2024/02/06 11:56:02;;;;;;;14.27;7.40;;;22.60;99.90;;;;;;4924966;29;20112;-58
2024/02/06 11:58:28;;;;;;;11.02;7.35;;;22.60;99.90;;;;;;4917860;29;20175;-58
2024/02/06 12:00:58;;;;;;;10.82;6.80;;;22.60;99.90;;;;;;4917816;29;20052;-57
2024/02/06 12:03:24;;;;;;;10.00;7.03;;;22.60;99.90;;;;;;4919831;29;20043;-59
2024/02/06 12:05:50;;;;;;;12.82;7.45;;;22.60;99.90;;;;;;4917795;29;20028;-59
2024/02/06 12:08:20;;;;;;;10.25;7.25;;;22.60;99.90;;;;;;4920647;29;20023;-58
2024/02/06 12:10:47;;;;;;;14.02;7.60;;;22.60;99.90;;;;;;4927663;29;20020;-55
2024/02/06 12:13:14;;;;;;;12.88;6.90;;;22.70;99.90;;;;;;4926805;29;20024;-58
2024/02/06 12:15:41;;;;;;;13.68;7.60;;;22.60;99.90;;;;;;4924137;29;20087;-58
2024/02/06 12:18:10;;;;;;;10.02;6.80;;;22.70;99.90;;;;;;4929570;29;20020;-59
2024/02/06 12:20:36;;;;;;;10.95;6.75;;;22.70;99.90;;;;;;4926963;29;20497;-57
2024/02/06 12:23:05;;;;;;;12.25;7.18;;;22.70;99.90;;;;;;4936644;29;20040;-58
2024/02/06 12:25:41;;;;;;;11.70;7.68;;;22.80;99.90;;;;;;4935372;29;20024;-61
2024/02/06 12:28:17;;;;;;;12.95;8.20;;;22.80;99.90;;;;;;4936567;29;20036;-58
2024/02/06 12:30:51;;;;;;;11.90;6.95;;;22.80;99.90;;;;;;4936334;29;20035;-59
2024/02/06 12:33:17;;;;;;;14.25;7.15;;;22.90;99.90;;;;;;4936103;29;20035;-60
2024/02/06 12:35:43;;;;;;;10.48;6.30;;;22.90;99.90;;;;;;4930891;29;20028;-59
2024/02/06 12:38:09;;;;;;;15.75;6.75;;;22.90;99.90;;;;;;4928903;29;20036;-55
2024/02/06 12:40:39;;;;;;;9.35;6.32;;;23.00;99.90;;;;;;4917259;29;20031;-58